Time;durP1;ratioP1;P1;durP2;ratioP2;P2;SDS_P1;SDS_P2;PMS_P1;PMS_P2;Temp;Humidity;BMP_temperature;BMP_pressure;BME280_temperature;BME280_humidity;BME280_pressure;Samples;Min_cycle;Max_cycle;Signal;HPM_P1;HPM_P2
2022/10/10 00:02:07;;;;;;;;;;;;;;;7.07;83.20;101387.75;1474023;88;20305;-78
2022/10/10 00:04:34;;;;;;;;;;;;;;;7.08;83.22;101382.87;1479276;88;20239;-80
2022/10/10 00:07:02;;;;;;;;;;;;;;;7.03;84.69;101384.12;1480957;88;20700;-79
2022/10/10 00:09:29;;;;;;;;;;;;;;;6.98;85.46;101370.78;1484221;88;20424;-80
2022/10/10 00:11:56;;;;;;;;;;;;;;;7.01;84.58;101373.20;1475060;88;20270;-80
2022/10/10 00:14:23;;;;;;;;;;;;;;;7.04;83.78;101370.84;1481976;88;20364;-80
2022/10/10 00:16:50;;;;;;;;;;;;;;;7.06;83.35;101375.55;1477251;88;20269;-80
2022/10/10 00:19:17;;;;;;;;;;;;;;;7.05;84.06;101373.88;1480505;88;20331;-79
2022/10/10 00:21:44;;;;;;;;;;;;;;;6.98;85.11;101366.00;1483317;88;20884;-80
2022/10/10 00:24:11;;;;;;;;;;;;;;;6.94;85.75;101366.67;1483894;88;20261;-80
2022/10/10 00:26:38;;;;;;;;;;;;;;;6.97;85.19;101377.48;1465247;88;20410;-80
2022/10/10 00:29:04;;;;;;;;;;;;;;;7.00;85.35;101371.53;1461907;88;20283;-80
2022/10/10 00:31:31;;;;;;;;;;;;;;;7.00;85.81;101368.06;1472941;88;20290;-80
2022/10/10 00:33:58;;;;;;;;;;;;;;;7.02;85.95;101358.28;1481058;88;20320;-79
2022/10/10 00:36:25;;;;;;;;;;;;;;;7.07;84.43;101362.75;1481556;88;20335;-80
2022/10/10 00:38:52;;;;;;;;;;;;;;;7.10;84.69;101366.48;1482007;88;20327;-80
2022/10/10 00:41:18;;;;;;;;;;;;;;;7.11;84.55;101369.52;1485553;88;20246;-80
2022/10/10 00:44:04;;;;;;;;;;;;;;;7.10;84.51;101366.48;1487704;88;20819;-80
2022/10/10 00:46:32;;;;;;;;;;;;;;;7.12;83.71;101371.19;1478753;88;21055;-80
2022/10/10 00:48:59;;;;;;;;;;;;;;;7.11;83.59;101366.88;1477891;88;20298;-80
2022/10/10 00:51:26;;;;;;;;;;;;;;;7.13;83.37;101369.39;1477205;88;20379;-80
2022/10/10 00:53:56;;;;;;;;;;;;;;;7.12;84.47;101369.88;1475750;88;21048;-80
2022/10/10 00:56:27;;;;;;;;;;;;;;;7.06;84.61;101365.02;1480573;88;20417;-80
2022/10/10 00:58:57;;;;;;;;;;;;;;;7.03;84.02;101359.13;1492361;88;20302;-80
2022/10/10 01:01:23;;;;;;;;;;;;;;;7.02;83.59;101364.87;1472368;88;20276;-79
2022/10/10 01:03:52;;;;;;;;;;;;;;;6.96;85.00;101357.34;1482867;88;20254;-80
2022/10/10 01:06:19;;;;;;;;;;;;;;;6.92;84.74;101351.93;1463854;88;20386;-80
2022/10/10 01:08:46;;;;;;;;;;;;;;;6.93;84.92;101352.29;1473834;88;20298;-80
2022/10/10 01:11:38;;;;;;;;;;;;;;;6.94;84.41;101358.78;1482888;88;20335;-80
2022/10/10 01:14:14;;;;;;;;;;;;;;;6.97;84.28;101357.73;1479891;88;20217;-81
2022/10/10 01:17:01;;;;;;;;;;;;;;;6.97;84.25;101357.27;1473443;88;20305;-80
2022/10/10 01:19:49;;;;;;;;;;;;;;;6.96;83.29;101351.64;1476383;88;20570;-80
2022/10/10 01:22:29;;;;;;;;;;;;;;;6.95;83.04;101360.45;1473181;88;20283;-81
2022/10/10 01:24:59;;;;;;;;;;;;;;;6.95;82.88;101356.98;1481130;88;20290;-81
2022/10/10 01:27:29;;;;;;;;;;;;;;;6.93;83.52;101350.97;1474847;88;20334;-80
2022/10/10 01:30:09;;;;;;;;;;;;;;;6.88;83.17;101345.20;1479003;88;20797;-82
2022/10/10 01:32:45;;;;;;;;;;;;;;;6.87;83.16;101355.33;1479081;88;20269;-82
2022/10/10 01:35:21;;;;;;;;;;;;;;;6.83;83.12;101363.06;1483614;88;20423;-82
2022/10/10 01:38:12;;;;;;;;;;;;;;;6.74;84.68;101356.14;1478711;88;20818;-82
2022/10/10 01:40:42;;;;;;;;;;;;;;;6.69;84.06;101350.81;1479501;88;20297;-82
2022/10/10 01:43:10;;;;;;;;;;;;;;;6.69;83.09;101354.27;1473794;88;20774;-81
2022/10/10 01:45:39;;;;;;;;;;;;;;;6.68;83.74;101357.86;1461532;88;20349;-82
2022/10/10 01:48:06;;;;;;;;;;;;;;;6.66;83.15;101363.69;1475086;88;20826;-81
2022/10/10 01:50:36;;;;;;;;;;;;;;;6.62;83.93;101353.00;1477148;88;20298;-81
2022/10/10 01:53:13;;;;;;;;;;;;;;;6.52;84.68;101350.58;1472576;88;20326;-81
2022/10/10 01:55:50;;;;;;;;;;;;;;;6.47;83.72;101354.84;1478941;88;20757;-82
2022/10/10 01:58:23;;;;;;;;;;;;;;;6.42;83.99;101354.76;1482804;88;20283;-81
2022/10/10 02:01:11;;;;;;;;;;;;;;;6.39;84.67;101350.98;1480276;88;20911;-80
2022/10/10 02:03:42;;;;;;;;;;;;;;;6.35;84.72;101349.03;1477076;88;20342;-80
2022/10/10 02:06:22;;;;;;;;;;;;;;;6.35;83.80;101353.45;1474608;88;20305;-81
2022/10/10 02:08:55;;;;;;;;;;;;;;;6.27;85.90;101349.98;1479813;88;20297;-81
2022/10/10 02:11:23;;;;;;;;;;;;;;;6.21;85.34;101359.09;1476345;88;20313;-80
2022/10/10 02:13:53;;;;;;;;;;;;;;;6.20;84.83;101360.05;1473064;88;20335;-79
2022/10/10 02:16:27;;;;;;;;;;;;;;;6.17;84.79;101360.25;1477840;88;20298;-77
2022/10/10 02:18:55;;;;;;;;;;;;;;;6.15;85.43;101360.80;1475626;88;20297;-78
2022/10/10 02:21:22;;;;;;;;;;;;;;;6.06;87.03;101355.65;1481058;88;20357;-78
2022/10/10 02:23:51;;;;;;;;;;;;;;;6.06;86.33;101360.07;1473517;88;20335;-78
2022/10/10 02:26:20;;;;;;;;;;;;;;;6.06;87.03;101358.75;1470797;88;20290;-78
2022/10/10 02:28:50;;;;;;;;;;;;;;;6.10;86.27;101366.84;1475870;88;20870;-79
2022/10/10 02:31:21;;;;;;;;;;;;;;;6.11;86.68;101367.20;1480715;88;20372;-79
2022/10/10 02:33:51;;;;;;;;;;;;;;;6.08;87.36;101363.45;1471153;88;20336;-79
2022/10/10 02:36:19;;;;;;;;;;;;;;;5.98;87.52;101360.53;1476956;88;20305;-77
2022/10/10 02:38:47;;;;;;;;;;;;;;;5.86;87.93;101354.23;1481909;88;20312;-79
2022/10/10 02:41:16;;;;;;;;;;;;;;;5.78;88.54;101348.63;1481452;88;20239;-77
2022/10/10 02:43:43;;;;;;;;;;;;;;;5.75;87.54;101343.53;1480642;88;20840;-79
2022/10/10 02:46:12;;;;;;;;;;;;;;;5.75;88.45;101347.95;1479763;88;20780;-79
2022/10/10 02:48:40;;;;;;;;;;;;;;;5.71;90.77;101349.08;1475066;88;20321;-77
2022/10/10 02:51:08;;;;;;;;;;;;;;;5.61;91.91;101341.77;1484062;88;20305;-78
2022/10/10 02:53:36;;;;;;;;;;;;;;;5.60;91.89;101341.38;1482541;88;20364;-78
2022/10/10 02:56:03;;;;;;;;;;;;;;;5.64;91.65;101343.38;1478845;88;20327;-79
2022/10/10 02:58:30;;;;;;;;;;;;;;;5.66;92.19;101344.10;1477782;88;20768;-79
2022/10/10 03:00:57;;;;;;;;;;;;;;;5.65;92.57;101341.11;1477737;88;20327;-79
2022/10/10 03:03:24;;;;;;;;;;;;;;;5.64;92.48;101343.38;1471148;88;20238;-79
2022/10/10 03:05:51;;;;;;;;;;;;;;;5.66;91.94;101341.47;1479078;88;20379;-79
2022/10/10 03:08:18;;;;;;;;;;;;;;;5.68;92.15;101336.98;1489244;88;20383;-79
2022/10/10 03:10:56;;;;;;;;;;;;;;;5.71;91.29;101343.36;1481085;88;21180;-79
2022/10/10 03:13:24;;;;;;;;;;;;;;;5.77;91.36;101346.08;1471096;88;20366;-79
2022/10/10 03:15:51;;;;;;;;;;;;;;;5.79;92.05;101343.73;1487699;88;20371;-79
2022/10/10 03:18:18;;;;;;;;;;;;;;;5.74;92.32;101333.97;1475171;88;20283;-79
2022/10/10 03:20:48;;;;;;;;;;;;;;;5.71;92.01;101340.73;1485869;88;20344;-79
2022/10/10 03:23:14;;;;;;;;;;;;;;;5.71;91.70;101336.79;1473850;88;20313;-79
2022/10/10 03:25:42;;;;;;;;;;;;;;;5.73;91.22;101334.09;1482427;88;21143;-77
2022/10/10 03:28:10;;;;;;;;;;;;;;;5.72;91.32;101335.84;1488232;88;20887;-79
2022/10/10 03:30:38;;;;;;;;;;;;;;;5.70;90.76;101331.17;1480026;88;20409;-77
2022/10/10 03:33:06;;;;;;;;;;;;;;;5.74;90.17;101337.08;1473737;88;20291;-76
2022/10/10 03:35:33;;;;;;;;;;;;;;;5.74;90.43;101336.60;1474182;88;20311;-78
2022/10/10 03:38:00;;;;;;;;;;;;;;;5.70;90.48;101337.73;1475841;88;20239;-77
2022/10/10 03:40:27;;;;;;;;;;;;;;;5.65;90.58;101341.11;1482579;88;20372;-77
2022/10/10 03:42:54;;;;;;;;;;;;;;;5.64;90.35;101335.49;1479623;88;20305;-77
2022/10/10 03:45:21;;;;;;;;;;;;;;;5.58;91.21;101338.47;1477943;88;20759;-77
2022/10/10 03:47:48;;;;;;;;;;;;;;;5.60;90.17;101348.42;1473873;88;20297;-77
2022/10/10 03:50:15;;;;;;;;;;;;;;;5.62;90.17;101345.23;1485910;88;20366;-77
2022/10/10 03:52:42;;;;;;;;;;;;;;;5.59;91.00;101336.23;1471416;88;20247;-77
2022/10/10 03:55:09;;;;;;;;;;;;;;;5.59;91.52;101336.23;1474287;88;20297;-77
2022/10/10 03:57:36;;;;;;;;;;;;;;;5.59;90.68;101340.17;1480268;88;20373;-79
2022/10/10 04:00:03;;;;;;;;;;;;;;;5.59;90.30;101339.70;1474493;88;20850;-78
2022/10/10 04:02:31;;;;;;;;;;;;;;;5.58;91.09;101346.34;1480126;88;20312;-79
2022/10/10 04:04:57;;;;;;;;;;;;;;;5.55;90.46;101347.84;1472822;88;20253;-79
2022/10/10 04:07:24;;;;;;;;;;;;;;;5.54;90.79;101351.42;1482787;88;20759;-77
2022/10/10 04:09:51;;;;;;;;;;;;;;;5.50;90.44;101344.67;1484478;88;20261;-79
2022/10/10 04:12:18;;;;;;;;;;;;;;;5.49;89.77;101348.22;1472198;88;20260;-79
2022/10/10 04:14:45;;;;;;;;;;;;;;;5.47;89.53;101348.77;1487544;88;21090;-79
2022/10/10 04:17:12;;;;;;;;;;;;;;;5.46;89.64;101348.41;1473926;88;20398;-79
2022/10/10 04:19:39;;;;;;;;;;;;;;;5.41;89.58;101344.28;1464552;88;20417;-80
2022/10/10 04:22:05;;;;;;;;;;;;;;;5.37;90.17;101340.61;1478787;88;20398;-81
2022/10/10 04:24:32;;;;;;;;;;;;;;;5.29;90.27;101333.19;1478076;88;20802;-80
2022/10/10 04:26:59;;;;;;;;;;;;;;;5.25;90.42;101333.00;1478544;88;20344;-80
2022/10/10 04:29:26;;;;;;;;;;;;;;;5.15;91.14;101327.47;1484873;88;20350;-80
2022/10/10 04:31:53;;;;;;;;;;;;;;;5.12;90.81;101330.72;1476265;88;20261;-80
2022/10/10 04:34:20;;;;;;;;;;;;;;;5.11;90.27;101332.97;1473141;88;20825;-79
2022/10/10 04:36:47;;;;;;;;;;;;;;;5.06;90.39;101325.83;1480868;88;20239;-79
2022/10/10 04:39:14;;;;;;;;;;;;;;;5.03;92.16;101328.64;1476259;88;20275;-80
2022/10/10 04:41:40;;;;;;;;;;;;;;;5.04;90.85;101339.53;1486283;88;20261;-80
2022/10/10 04:44:07;;;;;;;;;;;;;;;5.04;91.15;101338.22;1477799;88;20501;-80
2022/10/10 04:46:34;;;;;;;;;;;;;;;5.04;90.39;101343.47;1483046;88;20373;-79
2022/10/10 04:49:01;;;;;;;;;;;;;;;5.04;90.31;101344.78;1473220;88;20395;-79
2022/10/10 04:51:28;;;;;;;;;;;;;;;5.03;90.45;101349.63;1474782;88;20276;-80
2022/10/10 04:53:55;;;;;;;;;;;;;;;5.05;90.13;101353.02;1481164;88;20343;-79
2022/10/10 04:56:24;;;;;;;;;;;;;;;5.06;90.51;101350.28;1473024;88;20297;-80
2022/10/10 04:58:51;;;;;;;;;;;;;;;5.07;91.09;101351.16;1459944;88;20298;-79
2022/10/10 05:01:18;;;;;;;;;;;;;;;5.04;90.50;101353.96;1481438;88;20327;-80
2022/10/10 05:03:45;;;;;;;;;;;;;;;5.07;89.99;101356.41;1478876;88;20275;-80
2022/10/10 05:06:11;;;;;;;;;;;;;;;5.07;90.50;101355.09;1478858;88;20943;-80
2022/10/10 05:08:38;;;;;;;;;;;;;;;5.12;89.74;101356.95;1478130;88;20275;-80
2022/10/10 05:11:05;;;;;;;;;;;;;;;5.14;89.27;101354.63;1471027;88;20232;-81
2022/10/10 05:13:32;;;;;;;;;;;;;;;5.17;89.58;101348.35;1479050;88;20372;-81
2022/10/10 05:15:59;;;;;;;;;;;;;;;5.16;89.02;101346.67;1481758;88;20937;-80
2022/10/10 05:18:26;;;;;;;;;;;;;;;5.18;90.62;101348.28;1480624;88;20701;-81
2022/10/10 05:20:53;;;;;;;;;;;;;;;5.19;89.58;101338.62;1482146;88;20335;-80
2022/10/10 05:23:20;;;;;;;;;;;;;;;5.24;89.65;101340.52;1464334;88;20269;-81
2022/10/10 05:25:49;;;;;;;;;;;;;;;5.29;90.22;101341.05;1477245;88;20390;-78
2022/10/10 05:28:16;;;;;;;;;;;;;;;5.38;89.76;101341.84;1484615;88;20513;-79
2022/10/10 05:30:43;;;;;;;;;;;;;;;5.48;89.56;101347.85;1476494;88;20327;-79
2022/10/10 05:33:10;;;;;;;;;;;;;;;5.57;89.98;101345.98;1475329;88;20952;-78
2022/10/10 05:35:37;;;;;;;;;;;;;;;5.60;89.47;101341.38;1479334;88;20432;-78
2022/10/10 05:38:04;;;;;;;;;;;;;;;5.64;89.40;101338.12;1479109;88;20409;-78
2022/10/10 05:40:31;;;;;;;;;;;;;;;5.61;90.28;101344.84;1476264;88;20930;-79
2022/10/10 05:42:57;;;;;;;;;;;;;;;5.67;89.27;101343.18;1474895;88;20350;-79
2022/10/10 05:45:24;;;;;;;;;;;;;;;5.74;89.92;101347.11;1476262;88;20387;-83
2022/10/10 05:47:54;;;;;;;;;;;;;;;5.78;89.75;101338.12;1469276;88;20818;-85
2022/10/10 05:50:26;;;;;;;;;;;;;;;5.76;90.66;101331.27;1467371;88;20901;-82
2022/10/10 05:52:52;;;;;;;;;;;;;;;5.78;91.15;101338.12;1469187;88;20224;-86
2022/10/10 05:55:19;;;;;;;;;;;;;;;5.86;90.82;101347.66;1468497;88;20782;-86
2022/10/10 05:57:46;;;;;;;;;;;;;;;5.92;91.56;101346.91;1473346;88;20283;-86
2022/10/10 06:00:13;;;;;;;;;;;;;;;5.96;92.38;101340.58;1476895;88;20262;-84
2022/10/10 06:02:40;;;;;;;;;;;;;;;6.07;91.45;101347.30;1479008;88;20275;-86
2022/10/10 06:05:08;;;;;;;;;;;;;;;6.23;91.16;101344.55;1460949;88;20275;-84
2022/10/10 06:07:35;;;;;;;;;;;;;;;6.37;90.84;101346.31;1474568;88;20356;-86
2022/10/10 06:10:01;;;;;;;;;;;;;;;6.50;90.32;101355.09;1474177;88;20700;-84
2022/10/10 06:12:28;;;;;;;;;;;;;;;6.64;89.87;101360.30;1483306;88;20276;-83
2022/10/10 06:14:55;;;;;;;;;;;;;;;6.84;89.35;101362.11;1482137;88;20312;-85
2022/10/10 06:17:22;;;;;;;;;;;;;;;6.97;88.41;101358.58;1476047;88;20274;-85
2022/10/10 06:19:49;;;;;;;;;;;;;;;7.11;87.90;101357.66;1480753;88;20439;-87
2022/10/10 06:22:16;;;;;;;;;;;;;;;7.20;86.95;101359.67;1486184;88;20394;-85
2022/10/10 06:24:43;;;;;;;;;;;;;;;7.27;86.32;101359.26;1479201;88;20820;-85
2022/10/10 06:27:09;;;;;;;;;;;;;;;7.38;86.13;101350.16;1476902;88;20297;-86
2022/10/10 06:29:36;;;;;;;;;;;;;;;7.53;85.77;101356.17;1477710;88;20247;-87
2022/10/10 06:32:03;;;;;;;;;;;;;;;7.68;85.42;101362.55;1480118;88;20239;-86
2022/10/10 06:34:30;;;;;;;;;;;;;;;7.85;85.08;101356.12;1472078;88;21177;-87
2022/10/10 06:36:57;;;;;;;;;;;;;;;7.97;83.45;101359.69;1479366;88;20434;-87
2022/10/10 06:39:24;;;;;;;;;;;;;;;8.02;81.83;101356.70;1475061;88;20429;-83
2022/10/10 06:41:51;;;;;;;;;;;;;;;8.13;82.00;101366.02;1486965;88;20305;-86
2022/10/10 06:44:18;;;;;;;;;;;;;;;8.19;81.53;101365.58;1474731;88;20281;-86
2022/10/10 06:46:44;;;;;;;;;;;;;;;8.26;80.18;101369.96;1479092;88;20276;-84
2022/10/10 06:49:11;;;;;;;;;;;;;;;8.41;80.38;101368.88;1479891;88;20298;-86
2022/10/10 06:51:39;;;;;;;;;;;;;;;8.58;81.05;101362.39;1478547;88;20833;-87
2022/10/10 06:54:05;;;;;;;;;;;;;;;8.75;80.61;101364.63;1476553;88;20952;-86
2022/10/10 06:56:32;;;;;;;;;;;;;;;8.89;78.81;101364.94;1479674;88;20282;-88
2022/10/10 06:58:59;;;;;;;;;;;;;;;8.91;75.75;101364.33;1471575;88;20336;-86
2022/10/10 07:01:26;;;;;;;;;;;;;;;9.06;76.50;101365.45;1484170;88;20803;-85
2022/10/10 07:03:53;;;;;;;;;;;;;;;9.19;75.73;101371.52;1479423;88;20254;-87
2022/10/10 07:06:20;;;;;;;;;;;;;;;9.33;76.01;101376.59;1479750;88;20426;-86
2022/10/10 07:08:47;;;;;;;;;;;;;;;9.41;75.10;101369.42;1477184;88;20312;-85
2022/10/10 07:11:14;;;;;;;;;;;;;;;9.51;74.42;101374.34;1475511;88;20773;-87
2022/10/10 07:13:40;;;;;;;;;;;;;;;9.69;75.25;101368.12;1479540;88;20282;-87
2022/10/10 07:16:09;;;;;;;;;;;;;;;9.84;73.03;101372.69;1476034;88;20290;-87
2022/10/10 07:18:36;;;;;;;;;;;;;;;9.88;72.10;101367.54;1468712;88;20282;-84
2022/10/10 07:21:04;;;;;;;;;;;;;;;10.05;72.54;101363.57;1470743;89;20350;-88
2022/10/10 07:23:31;;;;;;;;;;;;;;;10.18;71.53;101369.55;1428111;89;20811;-84
2022/10/10 07:26:01;;;;;;;;;;;;;;;10.38;72.19;101370.16;1479022;88;21106;-81
2022/10/10 07:28:28;;;;;;;;;;;;;;;10.46;70.05;101358.13;1477653;87;20447;-85
2022/10/10 07:31:03;;;;;;;;;;;;;;;10.50;68.78;101358.22;1475493;88;20282;-84
2022/10/10 07:33:33;;;;;;;;;;;;;;;10.58;69.58;101355.30;1476722;88;20305;-83
2022/10/10 07:36:00;;;;;;;;;;;;;;;10.75;70.53;101352.61;1472265;87;20312;-82
2022/10/10 07:38:27;;;;;;;;;;;;;;;10.86;70.08;101345.11;1474027;88;20356;-85
2022/10/10 07:40:54;;;;;;;;;;;;;;;10.98;67.48;101350.70;1477720;88;20950;-85
2022/10/10 07:43:21;;;;;;;;;;;;;;;11.17;68.58;101344.72;1474294;88;20434;-86
2022/10/10 07:45:48;;;;;;;;;;;;;;;11.28;68.63;101345.98;1479501;88;20342;-86
2022/10/10 07:48:14;;;;;;;;;;;;;;;11.40;67.60;101340.61;1475286;88;20335;-85
2022/10/10 07:50:43;;;;;;;;;;;;;;;11.57;67.92;101340.50;1476402;88;20290;-85
2022/10/10 07:53:10;;;;;;;;;;;;;;;11.82;69.74;101335.22;1477091;88;20643;-85
2022/10/10 07:55:39;;;;;;;;;;;;;;;12.06;67.89;101337.09;1479270;88;20291;-85
2022/10/10 07:58:06;;;;;;;;;;;;;;;12.24;67.31;101339.09;1474918;88;20283;-85
2022/10/10 08:00:34;;;;;;;;;;;;;;;12.34;65.42;101331.98;1469343;88;20803;-85
2022/10/10 08:03:01;;;;;;;;;;;;;;;12.52;66.48;101338.31;1476894;88;20906;-84
2022/10/10 08:05:28;;;;;;;;;;;;;;;12.68;65.20;101331.61;1476392;88;20269;-85
2022/10/10 08:07:55;;;;;;;;;;;;;;;12.80;64.99;101339.78;1478262;88;20246;-83
2022/10/10 08:10:22;;;;;;;;;;;;;;;12.82;63.58;101343.14;1474689;88;20282;-86
2022/10/10 08:12:48;;;;;;;;;;;;;;;12.86;63.30;101336.09;1478469;88;20290;-86
2022/10/10 08:15:15;;;;;;;;;;;;;;;12.95;63.54;101335.73;1477003;88;20298;-86
2022/10/10 08:17:42;;;;;;;;;;;;;;;13.07;63.68;101333.27;1473556;88;20282;-86
2022/10/10 08:20:09;;;;;;;;;;;;;;;13.26;63.48;101332.91;1473161;88;20951;-86
2022/10/10 08:22:36;;;;;;;;;;;;;;;13.32;63.29;101335.00;1469878;88;20290;-85
2022/10/10 08:25:03;;;;;;;;;;;;;;;13.51;63.93;101336.28;1479016;88;20342;-85
2022/10/10 08:27:30;;;;;;;;;;;;;;;13.44;61.25;101334.37;1481672;88;20376;-86
2022/10/10 08:29:57;;;;;;;;;;;;;;;13.54;61.31;101334.66;1479032;88;20390;-85
2022/10/10 08:32:24;;;;;;;;;;;;;;;13.76;64.14;101337.47;1473828;88;20283;-86
2022/10/10 08:34:51;;;;;;;;;;;;;;;13.96;62.65;101335.56;1473232;88;20959;-86
2022/10/10 08:37:18;;;;;;;;;;;;;;;14.06;60.94;101338.66;1474943;88;20328;-86
2022/10/10 08:39:45;;;;;;;;;;;;;;;14.07;61.37;101334.53;1480021;88;20274;-86
2022/10/10 08:42:18;;;;;;;;;;;;;;;14.22;60.67;101331.70;1476434;88;20247;-88
2022/10/10 08:44:55;;;;;;;;;;;;;;;14.33;59.06;101335.99;1472371;88;20239;-87
2022/10/10 08:47:32;;;;;;;;;;;;;;;14.40;59.76;101322.91;1470905;88;20512;-86
2022/10/10 08:50:02;;;;;;;;;;;;;;;14.65;59.99;101326.69;1480235;88;20386;-86
2022/10/10 08:52:48;;;;;;;;;;;;;;;14.81;60.36;101321.98;1476293;87;20350;-86
2022/10/10 08:55:21;;;;;;;;;;;;;;;14.95;59.94;101332.09;1482689;88;20254;-87
2022/10/10 08:58:15;;;;;;;;;;;;;;;14.92;56.92;101329.74;1476403;88;20899;-86
2022/10/10 09:00:46;;;;;;;;;;;;;;;15.04;58.01;101330.33;1474713;88;20811;-87
2022/10/10 09:03:31;;;;;;;;;;;;;;;15.12;57.13;101325.06;1471728;88;20876;-86
2022/10/10 09:06:17;;;;;;;;;;;;;;;15.38;59.86;101326.91;1485082;87;21056;-86
2022/10/10 09:09:14;;;;;;;;;;;;;;;15.71;56.01;101327.98;1477621;88;20305;-87
2022/10/10 09:11:48;;;;;;;;;;;;;;;16.28;56.72;101322.00;1479126;88;20385;-85
2022/10/10 09:14:34;;;;;;;;;;;;;;;16.79;52.35;101314.77;1479058;88;20432;-85
2022/10/10 09:17:21;;;;;;;;;;;;;;;17.24;52.96;101314.23;1471455;88;20335;-85
2022/10/10 09:20:16;;;;;;;;;;;;;;;17.83;51.60;101307.23;1482144;88;20290;-87
2022/10/10 09:23:05;;;;;;;;;;;;;;;18.41;50.02;101307.28;1483603;88;20269;-86
2022/10/10 09:25:41;;;;;;;;;;;;;;;19.38;49.33;101295.89;1460109;89;20300;-86
2022/10/10 09:28:11;;;;;;;;;;;;;;;19.95;46.18;101289.88;1458181;89;20806;-86
2022/10/10 09:30:42;;;;;;;;;;;;;;;20.67;47.17;101289.52;1453730;89;20374;-85
2022/10/10 09:33:18;;;;;;;;;;;;;;;20.95;44.12;101282.83;1455709;88;20382;-85
2022/10/10 09:35:46;;;;;;;;;;;;;;;21.08;44.55;101287.47;1451253;90;20271;-84
2022/10/10 09:38:26;;;;;;;;;;;;;;;21.37;44.88;101282.41;1449837;90;20346;-84
2022/10/10 09:40:57;;;;;;;;;;;;;;;21.65;44.25;101286.92;1457598;88;20410;-82
2022/10/10 09:43:27;;;;;;;;;;;;;;;21.94;43.74;101282.59;1382218;91;20353;-83
2022/10/10 09:45:57;;;;;;;;;;;;;;;22.04;42.25;101280.87;1445114;88;21010;-84
2022/10/10 09:48:33;;;;;;;;;;;;;;;21.99;40.43;101283.34;1469204;88;20405;-81
2022/10/10 09:51:03;;;;;;;;;;;;;;;22.03;42.44;101275.98;1461896;88;20337;-82
2022/10/10 09:53:30;;;;;;;;;;;;;;;22.18;41.21;101275.88;1464022;88;20372;-80
2022/10/10 09:55:57;;;;;;;;;;;;;;;22.27;42.63;101264.37;1470864;88;20329;-83
2022/10/10 09:58:28;;;;;;;;;;;;;;;21.87;39.24;101269.62;1472076;88;20305;-83
2022/10/10 10:01:12;;;;;;;;;;;;;;;21.56;40.24;101268.23;1469974;88;20291;-83
2022/10/10 10:03:39;;;;;;;;;;;;;;;21.55;41.22;101268.42;1466078;88;20416;-84
2022/10/10 10:06:12;;;;;;;;;;;;;;;21.43;41.85;101264.11;1456408;88;20275;-83
2022/10/10 10:08:43;;;;;;;;;;;;;;;21.41;42.13;101262.16;1547466;88;20225;-81
2022/10/10 10:11:30;;;;;;;;;;;;;;;21.73;42.35;101262.52;1544535;88;20247;-82
2022/10/10 10:14:01;;;;;;;;;;;;;;;22.18;43.62;101250.26;1540001;88;20254;-82
2022/10/10 10:16:33;;;;;;;;;;;;;;;22.29;42.62;101250.98;1389847;89;20723;-82
2022/10/10 10:19:00;;;;;;;;;;;;;;;22.43;41.35;101243.74;1385967;88;20263;-82
2022/10/10 10:21:27;;;;;;;;;;;;;;;22.48;41.39;101242.61;1384518;88;20893;-81
2022/10/10 10:24:00;;;;;;;;;;;;;;;22.34;41.16;101238.23;1396540;88;20339;-82
2022/10/10 10:26:42;;;;;;;;;;;;;;;22.53;42.10;101236.61;1501888;88;20812;-84
2022/10/10 10:29:31;;;;;;;;;;;;;;;22.43;40.20;101234.83;1460702;88;20398;-84
2022/10/10 10:32:11;;;;;;;;;;;;;;;22.29;41.03;101238.02;1465088;88;20393;-83
2022/10/10 10:35:00;;;;;;;;;;;;;;;22.54;41.34;101235.56;1464420;88;20803;-83
2022/10/10 10:37:39;;;;;;;;;;;;;;;22.49;41.53;101234.82;1470069;88;20386;-83
2022/10/10 10:40:32;;;;;;;;;;;;;;;22.74;40.38;101228.82;1466228;88;20417;-83
2022/10/10 10:43:17;;;;;;;;;;;;;;;22.93;41.46;101221.23;1462733;88;20581;-83
2022/10/10 10:46:14;;;;;;;;;;;;;;;22.71;40.61;101221.97;1468309;88;20318;-83
2022/10/10 10:49:00;;;;;;;;;;;;;;;22.43;39.78;101219.47;1463732;88;20297;-83
2022/10/10 10:51:49;;;;;;;;;;;;;;;22.03;41.29;101220.72;1462471;88;20907;-87
2022/10/10 10:54:40;;;;;;;;;;;;;;;21.95;40.87;101216.89;1446286;89;20886;-82
2022/10/10 10:57:17;;;;;;;;;;;;;;;22.16;42.21;101204.28;1443449;89;20329;-82
2022/10/10 11:00:02;;;;;;;;;;;;;;;22.39;40.38;101201.23;1449291;89;20344;-83
2022/10/10 11:03:03;;;;;;;;;;;;;;;22.70;41.04;101197.88;1447041;89;20388;-83
2022/10/10 11:05:40;;;;;;;;;;;;;;;22.60;41.34;101205.05;1450056;89;21307;-81
2022/10/10 11:08:10;;;;;;;;;;;;;;;22.43;39.99;101201.11;1529634;89;20264;-82
2022/10/10 11:10:52;;;;;;;;;;;;;;;22.57;40.75;101197.38;1368655;89;20264;-84
2022/10/10 11:13:25;;;;;;;;;;;;;;;22.89;41.67;101198.91;1506594;89;20300;-84
2022/10/10 11:15:55;;;;;;;;;;;;;;;23.05;39.91;101196.33;1440524;89;20448;-82
2022/10/10 11:18:32;;;;;;;;;;;;;;;23.11;39.75;101198.17;1450593;89;21005;-80
2022/10/10 11:21:02;;;;;;;;;;;;;;;23.13;39.16;101196.07;1445999;89;20315;-85
2022/10/10 11:23:45;;;;;;;;;;;;;;;23.34;40.37;101187.71;1445221;89;20366;-83
2022/10/10 11:26:27;;;;;;;;;;;;;;;23.33;39.34;101184.71;1451580;89;20336;-85
2022/10/10 11:29:01;;;;;;;;;;;;;;;23.54;40.92;101186.28;1453062;89;20316;-83
2022/10/10 11:31:34;;;;;;;;;;;;;;;23.94;39.91;101177.13;1467670;88;20254;-86
2022/10/10 11:34:05;;;;;;;;;;;;;;;24.09;38.73;101173.62;1472564;88;21710;-85
2022/10/10 11:36:35;;;;;;;;;;;;;;;24.65;39.61;101177.34;1456714;88;20379;-84
2022/10/10 11:39:06;;;;;;;;;;;;;;;24.73;39.00;101165.70;1469604;88;20305;-82
2022/10/10 11:41:41;;;;;;;;;;;;;;;25.02;39.17;101174.16;1470155;88;20328;-84
2022/10/10 11:44:15;;;;;;;;;;;;;;;25.25;39.13;101163.20;1470772;88;20426;-83
2022/10/10 11:46:47;;;;;;;;;;;;;;;25.27;37.33;101161.92;1470608;88;20383;-84
2022/10/10 11:49:36;;;;;;;;;;;;;;;25.46;37.69;101154.58;1469151;88;20436;-84
2022/10/10 11:52:16;;;;;;;;;;;;;;;25.61;37.83;101157.73;1460563;88;20401;-85
2022/10/10 11:54:56;;;;;;;;;;;;;;;25.34;36.05;101152.34;1470644;88;20289;-83
2022/10/10 11:57:42;;;;;;;;;;;;;;;25.27;35.13;101145.67;1475253;88;20326;-84
2022/10/10 12:00:12;;;;;;;;;;;;;;;25.59;36.58;101147.64;1464303;88;20441;-85
2022/10/10 12:02:40;;;;;;;;;;;;;;;25.91;37.00;101146.06;1457086;88;20491;-85
2022/10/10 12:05:16;;;;;;;;;;;;;;;25.86;36.68;101144.56;1448717;89;20848;-83
2022/10/10 12:08:08;;;;;;;;;;;;;;;25.96;36.49;101130.47;1450587;90;20283;-85
2022/10/10 12:10:50;;;;;;;;;;;;;;;25.66;34.60;101132.63;1451992;90;20998;-85
2022/10/10 12:13:33;;;;;;;;;;;;;;;25.39;35.84;101126.77;1455282;89;20403;-84
2022/10/10 12:16:13;;;;;;;;;;;;;;;25.35;36.28;101126.40;1450817;89;20380;-86
2022/10/10 12:18:52;;;;;;;;;;;;;;;25.03;35.98;101124.38;1454995;89;20299;-85
2022/10/10 12:21:23;;;;;;;;;;;;;;;24.73;35.84;101121.05;1449579;90;20351;-86
2022/10/10 12:24:11;;;;;;;;;;;;;;;24.67;36.66;101125.19;1445899;90;20379;-86
2022/10/10 12:26:54;;;;;;;;;;;;;;;24.37;37.17;101119.59;1449955;90;20313;-85
2022/10/10 12:29:46;;;;;;;;;;;;;;;24.60;38.43;101124.41;1457078;90;20312;-86
2022/10/10 12:32:17;;;;;;;;;;;;;;;24.63;38.16;101115.34;1447777;89;20305;-86
2022/10/10 12:34:51;;;;;;;;;;;;;;;24.65;37.86;101119.16;1446125;89;20247;-85
2022/10/10 12:37:32;;;;;;;;;;;;;;;24.66;38.23;101113.53;1451190;90;20680;-86
2022/10/10 12:40:09;;;;;;;;;;;;;;;24.73;37.01;101109.40;1454028;90;20312;-85
2022/10/10 12:42:49;;;;;;;;;;;;;;;24.97;36.70;101110.36;1450891;90;20900;-86
2022/10/10 12:45:32;;;;;;;;;;;;;;;25.31;37.02;101112.17;1446726;89;20289;-85
2022/10/10 12:48:11;;;;;;;;;;;;;;;25.72;37.58;101100.55;1455332;89;20849;-86
2022/10/10 12:50:40;;;;;;;;;;;;;;;25.85;36.26;101100.90;1450234;90;20283;-85
2022/10/10 12:53:17;;;;;;;;;;;;;;;25.95;35.07;101103.88;1448902;89;21029;-86
2022/10/10 12:55:49;;;;;;;;;;;;;;;26.21;35.54;101103.12;1453675;89;20403;-86
2022/10/10 12:58:25;;;;;;;;;;;;;;;25.98;33.58;101099.34;1462025;90;20216;-85
2022/10/10 13:00:52;;;;;;;;;;;;;;;26.16;33.90;101101.66;1445921;89;20291;-85
2022/10/10 13:03:29;;;;;;;;;;;;;;;25.59;33.78;101102.92;1451818;90;20775;-85
2022/10/10 13:06:01;;;;;;;;;;;;;;;25.86;34.74;101096.59;1449027;90;20835;-86